createdAt,value
2018-02-08T00:01:46.075Z,-5.60
2018-02-08T00:04:13.592Z,-5.70
2018-02-08T00:06:41.934Z,-5.50
2018-02-08T00:09:10.673Z,-5.50
2018-02-08T00:11:38.212Z,-5.50
2018-02-08T00:14:06.527Z,-5.70
2018-02-08T00:16:34.074Z,-5.70
2018-02-08T00:19:01.588Z,-5.70
2018-02-08T00:21:29.147Z,-5.80
2018-02-08T00:23:56.707Z,-5.90
2018-02-08T00:26:24.238Z,-5.90
2018-02-08T00:28:52.560Z,-5.80
2018-02-08T00:31:20.848Z,-5.70
2018-02-08T00:33:48.398Z,-5.70
2018-02-08T00:36:15.919Z,-5.70
2018-02-08T00:38:43.467Z,-5.80
2018-02-08T00:41:11.753Z,-6.00
2018-02-08T00:43:39.359Z,-6.00
2018-02-08T00:46:06.916Z,-5.90
2018-02-08T00:48:34.464Z,-5.80
2018-02-08T00:51:02.031Z,-5.90
2018-02-08T00:53:29.558Z,-5.80
2018-02-08T00:55:57.199Z,-5.90
2018-02-08T00:58:25.480Z,-6.00
2018-02-08T01:00:53.014Z,-6.00
2018-02-08T01:03:21.318Z,-6.00
2018-02-08T01:05:48.838Z,-6.00
2018-02-08T01:08:16.396Z,-6.00
2018-02-08T01:10:43.931Z,-5.90
2018-02-08T01:13:11.456Z,-5.90
2018-02-08T01:15:39.011Z,-5.90
2018-02-08T01:18:06.520Z,-6.00
2018-02-08T01:20:34.078Z,-6.10
2018-02-08T01:23:01.603Z,-6.00
2018-02-08T01:25:29.123Z,-6.00
2018-02-08T01:27:57.435Z,-6.20
2018-02-08T01:30:24.967Z,-6.20
2018-02-08T01:32:52.511Z,-6.10
2018-02-08T01:35:20.752Z,-6.10
2018-02-08T01:37:49.096Z,-6.30
2018-02-08T01:40:16.618Z,-6.30
2018-02-08T01:42:44.937Z,-6.10
2018-02-08T01:45:12.487Z,-6.10
2018-02-08T01:47:40.005Z,-6.10
2018-02-08T01:50:08.287Z,-6.10
2018-02-08T01:52:36.589Z,-6.10
2018-02-08T01:55:04.103Z,-6.10
2018-02-08T01:57:32.407Z,-6.20
2018-02-08T01:59:59.935Z,-6.20
2018-02-08T02:02:28.237Z,-6.30
2018-02-08T02:04:55.724Z,-6.30
2018-02-08T02:07:23.291Z,-6.40
2018-02-08T02:09:50.802Z,-6.30
2018-02-08T02:12:18.352Z,-6.40
2018-02-08T02:14:46.601Z,-6.50
2018-02-08T02:17:14.935Z,-6.50
2018-02-08T02:19:42.447Z,-6.50
2018-02-08T02:22:10.764Z,-6.30
2018-02-08T02:24:38.272Z,-6.30
2018-02-08T02:27:05.819Z,-6.20
2018-02-08T02:29:33.350Z,-6.30
2018-02-08T02:32:00.899Z,-6.30
2018-02-08T02:34:28.456Z,-6.30
2018-02-08T02:36:55.971Z,-6.10
2018-02-08T02:39:23.488Z,-6.20
2018-02-08T02:41:51.025Z,-6.40
2018-02-08T02:44:18.562Z,-6.40
2018-02-08T02:46:46.087Z,-6.40
2018-02-08T02:49:14.437Z,-6.30
2018-02-08T02:51:41.955Z,-6.20
2018-02-08T02:54:09.463Z,-6.40
2018-02-08T02:56:37.007Z,-6.50
2018-02-08T02:59:04.541Z,-6.40
2018-02-08T03:01:32.085Z,-6.50
2018-02-08T03:03:59.623Z,-6.50
2018-02-08T03:06:27.903Z,-6.70
2018-02-08T03:08:56.225Z,-6.60
2018-02-08T03:11:23.739Z,-6.60
2018-02-08T03:13:51.258Z,-6.60
2018-02-08T03:16:18.843Z,-6.60
2018-02-08T03:18:46.389Z,-6.60
2018-02-08T03:21:13.935Z,-6.70
2018-02-08T03:23:41.476Z,-6.80
2018-02-08T03:26:09.036Z,-6.70
2018-02-08T03:28:36.587Z,-6.70
2018-02-08T03:31:08.805Z,-6.70
2018-02-08T03:33:37.541Z,-6.60
2018-02-08T03:36:05.097Z,-6.60
2018-02-08T03:38:32.623Z,-6.50
2018-02-08T03:41:00.139Z,-6.60
2018-02-08T03:43:27.703Z,-6.50
2018-02-08T03:45:55.226Z,-6.50
2018-02-08T03:48:22.712Z,-6.50
2018-02-08T03:50:51.046Z,-6.50
2018-02-08T03:53:18.555Z,-6.60
2018-02-08T03:55:46.137Z,-6.70
2018-02-08T03:58:14.420Z,-6.80
2018-02-08T04:00:41.966Z,-6.80
2018-02-08T04:03:10.264Z,-6.80
2018-02-08T04:05:37.806Z,-6.80
2018-02-08T04:08:05.356Z,-6.80
2018-02-08T04:10:33.645Z,-6.70
2018-02-08T04:13:01.200Z,-6.80
2018-02-08T04:15:28.774Z,-6.70
2018-02-08T04:17:56.297Z,-6.70
2018-02-08T04:20:24.579Z,-6.70
2018-02-08T04:22:52.858Z,-6.90
2018-02-08T04:25:21.184Z,-6.90
2018-02-08T04:27:48.731Z,-6.90
2018-02-08T04:30:16.300Z,-6.90
2018-02-08T04:32:43.840Z,-6.90
2018-02-08T04:35:11.368Z,-6.90
2018-02-08T04:37:38.919Z,-6.90
2018-02-08T04:40:19.042Z,-6.90
2018-02-08T04:42:58.377Z,-6.90
2018-02-08T04:45:37.716Z,-6.90
2018-02-08T04:48:08.166Z,-6.90
2018-02-08T04:50:36.454Z,-7.00
2018-02-08T04:53:03.998Z,-7.00
2018-02-08T04:55:32.336Z,-6.80
2018-02-08T04:57:59.851Z,-6.90
2018-02-08T05:00:27.370Z,-6.80
2018-02-08T05:02:56.194Z,-6.90
2018-02-08T05:05:23.718Z,-6.90
2018-02-08T05:07:52.016Z,-6.90
2018-02-08T05:10:19.571Z,-6.90
2018-02-08T05:12:47.857Z,-6.90
2018-02-08T05:15:15.412Z,-6.90
2018-02-08T05:17:42.943Z,-7.00
2018-02-08T05:20:11.823Z,-7.10
2018-02-08T05:22:39.370Z,-7.10
2018-02-08T05:25:06.899Z,-7.10
2018-02-08T05:27:34.458Z,-7.20
2018-02-08T05:30:02.027Z,-7.10
2018-02-08T05:32:29.550Z,-7.00
2018-02-08T05:34:57.110Z,-7.10
2018-02-08T05:37:24.663Z,-7.00
2018-02-08T05:39:52.179Z,-6.80
2018-02-08T05:42:19.720Z,-6.80
2018-02-08T05:44:47.296Z,-6.80
2018-02-08T05:47:15.563Z,-6.80
2018-02-08T05:49:43.104Z,-6.80
2018-02-08T05:52:10.573Z,-6.80
2018-02-08T05:54:38.919Z,-6.70
2018-02-08T05:57:06.467Z,-6.80
2018-02-08T05:59:34.022Z,-6.80
2018-02-08T06:02:01.537Z,-6.90
2018-02-08T06:04:29.075Z,-6.80
2018-02-08T06:06:56.594Z,-6.80
2018-02-08T06:09:24.139Z,-6.80
2018-02-08T06:11:52.433Z,-7.10
2018-02-08T06:14:22.839Z,-7.10
2018-02-08T06:16:57.373Z,-7.10
2018-02-08T06:19:30.486Z,-6.90
2018-02-08T06:21:59.261Z,-6.90
2018-02-08T06:24:26.787Z,-6.90
2018-02-08T06:26:55.096Z,-7.00
2018-02-08T06:29:22.584Z,-7.00
2018-02-08T06:31:50.939Z,-6.90
2018-02-08T06:34:18.467Z,-6.90
2018-02-08T06:36:46.042Z,-6.80
2018-02-08T06:39:13.616Z,-6.70
2018-02-08T06:41:41.140Z,-6.70
2018-02-08T06:44:08.715Z,-6.60
2018-02-08T06:46:36.285Z,-6.60
2018-02-08T06:49:03.865Z,-6.70
2018-02-08T06:51:31.415Z,-6.70
2018-02-08T06:53:58.943Z,-6.70
2018-02-08T06:56:26.501Z,-6.70
2018-02-08T06:58:54.048Z,-6.80
2018-02-08T07:01:21.587Z,-6.80
2018-02-08T07:03:49.927Z,-6.70
2018-02-08T07:06:17.464Z,-6.70
2018-02-08T07:08:45.389Z,-6.60
2018-02-08T07:11:13.730Z,-6.70
2018-02-08T07:13:42.543Z,-6.70
2018-02-08T07:16:10.887Z,-6.50
2018-02-08T07:18:39.307Z,-6.50
2018-02-08T07:21:06.855Z,-6.50
2018-02-08T07:23:35.148Z,-6.40
2018-02-08T07:26:03.477Z,-6.30
2018-02-08T07:28:31.071Z,-6.30
2018-02-08T07:30:59.382Z,-6.10
2018-02-08T07:33:26.946Z,-6.10
2018-02-08T07:35:54.499Z,-6.10
2018-02-08T07:38:22.071Z,-5.90
2018-02-08T07:40:49.603Z,-5.90
2018-02-08T07:43:17.150Z,-5.70
2018-02-08T07:45:45.598Z,-5.60
2018-02-08T07:48:13.134Z,-5.30
2018-02-08T07:50:40.674Z,-5.10
2018-02-08T07:53:08.258Z,-5.00
2018-02-08T07:55:35.846Z,-4.90
2018-02-08T07:58:04.147Z,-4.60
2018-02-08T08:00:31.809Z,-4.60
2018-02-08T08:02:59.348Z,-4.50
2018-02-08T08:05:27.655Z,-4.30
2018-02-08T08:07:55.215Z,-4.30
2018-02-08T08:10:23.248Z,-4.20
2018-02-08T08:12:51.562Z,-4.20
2018-02-08T08:15:19.117Z,-4.20
2018-02-08T08:17:46.676Z,-4.10
2018-02-08T08:20:15.087Z,-3.90
2018-02-08T08:22:42.579Z,-3.70
2018-02-08T08:25:10.142Z,-3.80
2018-02-08T08:27:37.703Z,-3.70
2018-02-08T08:30:05.231Z,-3.50
2018-02-08T08:32:32.805Z,-3.40
2018-02-08T08:35:01.112Z,-3.20
2018-02-08T08:37:28.622Z,-3.30
2018-02-08T08:39:56.185Z,-3.20
2018-02-08T08:42:23.753Z,-3.00
2018-02-08T08:44:52.051Z,-3.00
2018-02-08T08:47:19.586Z,-3.00
2018-02-08T08:49:47.953Z,-2.90
2018-02-08T08:52:16.252Z,-2.80
2018-02-08T08:54:43.798Z,-2.80
2018-02-08T08:57:12.146Z,-2.80
2018-02-08T08:59:39.684Z,-2.80
2018-02-08T09:02:07.248Z,-2.70
2018-02-08T09:04:34.781Z,-2.60
2018-02-08T09:07:02.348Z,-2.80
2018-02-08T09:09:29.904Z,-2.90
2018-02-08T09:11:57.456Z,-2.90
2018-02-08T09:14:25.012Z,-3.10
2018-02-08T09:16:52.581Z,-3.00
2018-02-08T09:19:20.141Z,-3.10
2018-02-08T09:21:47.691Z,-3.00
2018-02-08T09:24:15.267Z,-3.00
2018-02-08T09:26:42.824Z,-2.90
2018-02-08T09:29:10.385Z,-2.80
2018-02-08T09:31:37.910Z,-2.60
2018-02-08T09:34:05.683Z,-2.40
2018-02-08T09:36:33.296Z,-2.30
2018-02-08T09:39:01.549Z,-2.00
2018-02-08T09:41:29.941Z,-1.90
2018-02-08T09:43:57.472Z,-1.90
2018-02-08T09:46:25.035Z,-1.90
2018-02-08T09:48:52.599Z,-1.70
2018-02-08T09:51:20.152Z,-1.50
2018-02-08T09:53:47.707Z,-1.50
2018-02-08T09:56:15.347Z,-1.40
2018-02-08T09:58:42.907Z,-1.40
2018-02-08T10:01:10.509Z,-1.20
2018-02-08T10:03:38.051Z,-1.20
2018-02-08T10:06:05.597Z,-1.20
2018-02-08T10:08:33.149Z,-1.00
2018-02-08T10:11:00.730Z,-0.90
2018-02-08T10:13:28.279Z,-0.90
2018-02-08T10:15:55.876Z,-1.00
2018-02-08T10:18:24.187Z,-0.70
2018-02-08T10:20:51.884Z,-0.70
2018-02-08T10:23:19.460Z,-0.80
2018-02-08T10:25:47.027Z,-0.70
2018-02-08T10:28:15.315Z,-0.60
2018-02-08T10:30:43.711Z,-0.60
2018-02-08T10:33:11.268Z,-0.60
2018-02-08T10:35:39.570Z,-0.60
2018-02-08T10:38:07.129Z,-0.60
2018-02-08T10:40:34.733Z,-0.50
2018-02-08T10:43:03.054Z,-0.40
2018-02-08T10:45:30.605Z,-0.40
2018-02-08T10:47:58.176Z,-0.20
2018-02-08T10:50:25.729Z,-0.20
2018-02-08T10:52:53.280Z,-0.10
2018-02-08T10:55:20.822Z,0.00
2018-02-08T10:57:48.480Z,0.10
2018-02-08T11:00:17.608Z,0.20
2018-02-08T11:02:45.232Z,0.40
2018-02-08T11:05:13.956Z,0.40
2018-02-08T11:07:42.333Z,0.40
2018-02-08T11:10:09.907Z,0.40
2018-02-08T11:12:37.496Z,0.40
2018-02-08T11:15:09.197Z,0.50
2018-02-08T11:17:38.072Z,0.50
2018-02-08T11:20:05.661Z,0.70
